»·PEaware :: DCM205 KBZN-KBOI

DCM205 :: KBZN-KBOI

FLIGHT INFORMATION

Flight Status: Arrived
Operator:
DotCom
More flights by this operator :: More flights under this callsign
Pilot: Chris S. (2433)
Aircraft: DEHAVILLAND DASH 8 400
(DH8D)
More flights by this aircraft type
Origin: KBZN Gallatin
United States
Destination: KBOI Boise Air Terminal/Gowen
United States
More flights between these airports :: More routes between these airports
Route: TEERX4 HIA LKT COLLR BEWTE3
File this flight plan on PilotEdge
Remarks:
Altitude:
(Current/Filed)
24,000ft
Speed:
(Current/Filed)
350kts
Departed: 02-Jan-21 09:43 AM
Arrived: 02-Jan-21 10:47 AM
Distance/Time
Traveled:
254nm/1:04
Distance/Time
To Go:
Arrived

Flight Plot

Page will automatically refresh every two minutes.

Flight plan parsing failed; only flown route is shown


Map Options




Map Legend


Flown Route
Filed Route
Departure Airport
Arrival Airport
Navaid (VOR, NDB)
Fix

Horizontal Profiles

Position Reports

Time Latitude Longitude Heading Altitude Ground
Speed
02-Jan-21 09:30 45.779388 -111.161147 231 4478ft 0kts
02-Jan-21 09:31 45.779388 -111.161147 231 4478ft 0kts
02-Jan-21 09:32 45.779388 -111.161147 231 4478ft 0kts
02-Jan-21 09:33 45.779388 -111.161147 231 4478ft 0kts
02-Jan-21 09:34 45.779388 -111.161147 231 4478ft 0kts
02-Jan-21 09:35 45.779388 -111.161147 231 4478ft 0kts
02-Jan-21 09:36 45.779402 -111.161122 231 4478ft 0kts
02-Jan-21 09:37 45.779552 -111.161013 307 4478ft 3kts
02-Jan-21 09:38 45.780836 -111.160535 325 4478ft 8kts
02-Jan-21 09:39 45.783381 -111.164053 316 4478ft 10kts
02-Jan-21 09:40 45.786121 -111.167878 316 4478ft 11kts
02-Jan-21 09:41 45.787399 -111.165528 135 4478ft 19kts
02-Jan-21 09:42 45.765082 -111.138709 166 5648ft 144kts
02-Jan-21 09:43 45.726616 -111.179743 224 8255ft 193kts
02-Jan-21 09:44 45.707852 -111.247714 270 11654ft 192kts
02-Jan-21 09:45 45.711471 -111.324666 274 14235ft 201kts
02-Jan-21 09:46 45.720596 -111.410311 278 15854ft 235kts
02-Jan-21 09:47 45.732530 -111.514438 277 16005ft 289kts
02-Jan-21 09:48 45.745714 -111.633810 278 16011ft 312kts
02-Jan-21 09:49 45.769664 -111.750257 287 16040ft 301kts
02-Jan-21 09:50 45.794871 -111.862483 285 17258ft 288kts
02-Jan-21 09:51 45.818485 -111.969415 283 18753ft 275kts
02-Jan-21 09:52 45.841155 -112.072461 282 20227ft 268kts
02-Jan-21 09:53 45.852617 -112.175032 248 21381ft 257kts
02-Jan-21 09:54 45.820827 -112.266431 237 22434ft 258kts
02-Jan-21 09:55 45.784044 -112.353568 234 23590ft 254kts
02-Jan-21 09:56 45.745766 -112.442157 235 24049ft 275kts
02-Jan-21 09:57 45.703493 -112.539647 236 24073ft 298kts
02-Jan-21 09:58 45.658842 -112.643129 237 24083ft 312kts
02-Jan-21 09:59 45.612687 -112.749897 238 24067ft 321kts
02-Jan-21 10:00 45.565117 -112.859479 239 24062ft 327kts
02-Jan-21 10:01 45.516798 -112.970383 240 24069ft 329kts
02-Jan-21 10:02 45.468602 -113.080680 242 24079ft 328kts
02-Jan-21 10:03 45.420215 -113.190925 243 24093ft 329kts
02-Jan-21 10:04 45.371400 -113.301783 244 24110ft 330kts
02-Jan-21 10:05 45.322540 -113.412281 244 24131ft 330kts
02-Jan-21 10:06 45.273766 -113.522153 245 24170ft 328kts
02-Jan-21 10:07 45.224701 -113.632340 245 24184ft 331kts
02-Jan-21 10:08 45.175288 -113.742774 245 24195ft 333kts
02-Jan-21 10:09 45.125360 -113.853903 245 24200ft 334kts
02-Jan-21 10:10 45.075529 -113.964370 246 24201ft 334kts
02-Jan-21 10:11 45.024383 -114.075088 249 24198ft 333kts
02-Jan-21 10:13 44.991804 -114.193043 260 24196ft 322kts
02-Jan-21 10:14 44.959070 -114.311019 259 24194ft 324kts
02-Jan-21 10:15 44.926219 -114.429324 259 24190ft 324kts
02-Jan-21 10:16 44.893133 -114.547737 259 24187ft 325kts
02-Jan-21 10:17 44.860812 -114.667196 255 24171ft 328kts
02-Jan-21 10:18 44.826066 -114.786002 255 24174ft 329kts
02-Jan-21 10:19 44.792315 -114.905837 255 24170ft 330kts
02-Jan-21 10:20 44.758100 -115.025944 255 24173ft 330kts
02-Jan-21 10:21 44.723911 -115.145388 255 24173ft 329kts
02-Jan-21 10:22 44.689692 -115.264523 254 24173ft 329kts
02-Jan-21 10:23 44.655368 -115.383513 254 24173ft 328kts
02-Jan-21 10:24 44.620971 -115.501860 254 24174ft 327kts
02-Jan-21 10:25 44.586690 -115.619544 253 24174ft 326kts
02-Jan-21 10:25 44.558064 -115.717343 253 24174ft 325kts
02-Jan-21 10:27 44.517910 -115.853720 253 24175ft 324kts
02-Jan-21 10:28 44.483446 -115.970320 253 24175ft 323kts
02-Jan-21 10:29 44.448817 -116.087761 252 22590ft 325kts
02-Jan-21 10:29 44.419902 -116.184184 251 21108ft 321kts
02-Jan-21 10:30 44.381098 -116.294515 230 19571ft 320kts
02-Jan-21 10:32 44.280087 -116.347921 198 17367ft 344kts
02-Jan-21 10:32 44.202639 -116.372435 198 15544ft 333kts
02-Jan-21 10:33 44.118663 -116.397806 197 13788ft 295kts
02-Jan-21 10:34 44.040843 -116.421622 196 12158ft 281kts
02-Jan-21 10:35 43.974334 -116.464888 214 10534ft 251kts
02-Jan-21 10:36 43.915238 -116.515034 214 8933ft 249kts
02-Jan-21 10:37 43.849934 -116.547407 183 7840ft 260kts
02-Jan-21 10:38 43.779624 -116.551335 184 6442ft 247kts
02-Jan-21 10:39 43.719122 -116.534686 140 5117ft 211kts
02-Jan-21 10:40 43.674770 -116.487658 142 5031ft 191kts
02-Jan-21 10:41 43.640938 -116.434251 125 5003ft 178kts
02-Jan-21 10:42 43.616318 -116.376851 118 4907ft 172kts
02-Jan-21 10:43 43.596532 -116.320673 116 4106ft 155kts
02-Jan-21 10:44 43.579281 -116.269361 116 3272ft 122kts
02-Jan-21 10:45 43.565686 -116.229801 117 2842ft 78kts
02-Jan-21 10:46 43.561219 -116.216782 114 2841ft 3kts
02-Jan-21 10:47 43.565171 -116.218340 294 2841ft 25kts
02-Jan-21 10:48 43.566875 -116.219918 190 2841ft 0kts
02-Jan-21 10:49 43.566875 -116.219918 190 2841ft 0kts
02-Jan-21 10:50 43.566875 -116.219918 190 2841ft 0kts

Navigation Log

Ident Type
Flight plan parsing failed, navigation log unavailable